sensor_id;sensor_type;location;lat;lon;timestamp;P1;durP1;ratioP1;P2;durP2;ratioP2
8803;SDS011;4438;50.890;4.726;2023-03-13T00:00:56;16.97;;;4.20;;
8803;SDS011;4438;50.890;4.726;2023-03-13T00:03:22;11.33;;;4.30;;
8803;SDS011;4438;50.890;4.726;2023-03-13T00:05:48;11.50;;;4.23;;
8803;SDS011;4438;50.890;4.726;2023-03-13T00:08:14;11.90;;;4.20;;
8803;SDS011;4438;50.890;4.726;2023-03-13T00:10:41;14.40;;;4.90;;
8803;SDS011;4438;50.890;4.726;2023-03-13T00:13:07;15.10;;;4.53;;
8803;SDS011;4438;50.890;4.726;2023-03-13T00:15:33;9.90;;;3.70;;
8803;SDS011;4438;50.890;4.726;2023-03-13T00:18:00;10.43;;;4.10;;
8803;SDS011;4438;50.890;4.726;2023-03-13T00:20:26;9.87;;;4.23;;
8803;SDS011;4438;50.890;4.726;2023-03-13T00:22:52;11.03;;;4.17;;
8803;SDS011;4438;50.890;4.726;2023-03-13T00:25:18;12.80;;;4.27;;
8803;SDS011;4438;50.890;4.726;2023-03-13T00:27:44;15.23;;;4.17;;
8803;SDS011;4438;50.890;4.726;2023-03-13T00:30:10;12.00;;;4.40;;
8803;SDS011;4438;50.890;4.726;2023-03-13T00:32:40;8.27;;;3.50;;
8803;SDS011;4438;50.890;4.726;2023-03-13T00:35:06;9.93;;;3.77;;
8803;SDS011;4438;50.890;4.726;2023-03-13T00:37:33;10.87;;;4.10;;
8803;SDS011;4438;50.890;4.726;2023-03-13T00:39:59;9.83;;;3.27;;
8803;SDS011;4438;50.890;4.726;2023-03-13T00:42:25;10.30;;;3.80;;
8803;SDS011;4438;50.890;4.726;2023-03-13T00:44:51;8.33;;;3.73;;
8803;SDS011;4438;50.890;4.726;2023-03-13T00:47:17;9.20;;;3.80;;
8803;SDS011;4438;50.890;4.726;2023-03-13T00:49:43;8.23;;;3.73;;
8803;SDS011;4438;50.890;4.726;2023-03-13T00:52:09;8.57;;;3.70;;
8803;SDS011;4438;50.890;4.726;2023-03-13T00:54:35;7.00;;;3.27;;
8803;SDS011;4438;50.890;4.726;2023-03-13T00:57:01;7.60;;;3.93;;
8803;SDS011;4438;50.890;4.726;2023-03-13T00:59:28;9.63;;;4.10;;
8803;SDS011;4438;50.890;4.726;2023-03-13T01:01:54;9.40;;;3.70;;
8803;SDS011;4438;50.890;4.726;2023-03-13T01:04:20;8.30;;;4.13;;
8803;SDS011;4438;50.890;4.726;2023-03-13T01:06:46;6.07;;;3.20;;
8803;SDS011;4438;50.890;4.726;2023-03-13T01:09:13;7.83;;;3.37;;
8803;SDS011;4438;50.890;4.726;2023-03-13T01:11:40;6.87;;;3.43;;
8803;SDS011;4438;50.890;4.726;2023-03-13T01:14:11;7.67;;;3.23;;
8803;SDS011;4438;50.890;4.726;2023-03-13T01:16:37;5.40;;;3.30;;
8803;SDS011;4438;50.890;4.726;2023-03-13T01:19:05;7.17;;;3.13;;
8803;SDS011;4438;50.890;4.726;2023-03-13T01:21:31;6.93;;;3.10;;
8803;SDS011;4438;50.890;4.726;2023-03-13T01:23:57;6.83;;;3.30;;
8803;SDS011;4438;50.890;4.726;2023-03-13T01:26:24;7.13;;;3.40;;
8803;SDS011;4438;50.890;4.726;2023-03-13T01:28:50;6.87;;;3.70;;
8803;SDS011;4438;50.890;4.726;2023-03-13T01:31:18;5.77;;;4.03;;
8803;SDS011;4438;50.890;4.726;2023-03-13T01:33:45;5.23;;;3.50;;
8803;SDS011;4438;50.890;4.726;2023-03-13T01:36:12;6.10;;;4.10;;
8803;SDS011;4438;50.890;4.726;2023-03-13T01:38:38;4.30;;;3.90;;
8803;SDS011;4438;50.890;4.726;2023-03-13T01:41:05;8.27;;;4.43;;
8803;SDS011;4438;50.890;4.726;2023-03-13T01:43:32;5.83;;;4.40;;
8803;SDS011;4438;50.890;4.726;2023-03-13T01:50:52;5.77;;;4.50;;
8803;SDS011;4438;50.890;4.726;2023-03-13T01:53:18;8.17;;;5.27;;
8803;SDS011;4438;50.890;4.726;2023-03-13T01:55:44;6.40;;;4.93;;
8803;SDS011;4438;50.890;4.726;2023-03-13T01:58:11;6.63;;;5.23;;
8803;SDS011;4438;50.890;4.726;2023-03-13T02:00:37;7.60;;;5.57;;
8803;SDS011;4438;50.890;4.726;2023-03-13T02:03:08;6.27;;;5.47;;
8803;SDS011;4438;50.890;4.726;2023-03-13T02:05:35;8.37;;;6.00;;
8803;SDS011;4438;50.890;4.726;2023-03-13T02:08:03;7.30;;;5.93;;
8803;SDS011;4438;50.890;4.726;2023-03-13T02:10:31;8.37;;;6.17;;
8803;SDS011;4438;50.890;4.726;2023-03-13T02:12:59;8.50;;;6.20;;
8803;SDS011;4438;50.890;4.726;2023-03-13T02:15:25;8.20;;;6.17;;
8803;SDS011;4438;50.890;4.726;2023-03-13T02:17:52;8.57;;;6.00;;
8803;SDS011;4438;50.890;4.726;2023-03-13T02:20:19;7.63;;;6.10;;
8803;SDS011;4438;50.890;4.726;2023-03-13T02:27:57;6.33;;;5.73;;
8803;SDS011;4438;50.890;4.726;2023-03-13T02:30:25;7.03;;;5.67;;
8803;SDS011;4438;50.890;4.726;2023-03-13T02:32:51;7.73;;;5.83;;
8803;SDS011;4438;50.890;4.726;2023-03-13T02:35:18;6.90;;;5.80;;
8803;SDS011;4438;50.890;4.726;2023-03-13T02:37:47;7.23;;;5.53;;
8803;SDS011;4438;50.890;4.726;2023-03-13T02:40:15;6.83;;;5.50;;
8803;SDS011;4438;50.890;4.726;2023-03-13T02:42:43;7.33;;;5.37;;
8803;SDS011;4438;50.890;4.726;2023-03-13T02:45:13;6.17;;;5.53;;
8803;SDS011;4438;50.890;4.726;2023-03-13T02:47:39;6.70;;;5.90;;
8803;SDS011;4438;50.890;4.726;2023-03-13T02:50:05;7.30;;;6.13;;
8803;SDS011;4438;50.890;4.726;2023-03-13T02:52:39;6.80;;;5.73;;
8803;SDS011;4438;50.890;4.726;2023-03-13T02:55:08;8.07;;;5.90;;
8803;SDS011;4438;50.890;4.726;2023-03-13T02:57:35;7.40;;;5.83;;
8803;SDS011;4438;50.890;4.726;2023-03-13T03:00:02;6.03;;;5.43;;
8803;SDS011;4438;50.890;4.726;2023-03-13T03:02:31;8.17;;;5.77;;
8803;SDS011;4438;50.890;4.726;2023-03-13T03:04:57;6.90;;;6.17;;
8803;SDS011;4438;50.890;4.726;2023-03-13T03:07:23;7.17;;;5.70;;
8803;SDS011;4438;50.890;4.726;2023-03-13T03:09:49;7.37;;;5.77;;
8803;SDS011;4438;50.890;4.726;2023-03-13T03:12:15;7.23;;;5.90;;
8803;SDS011;4438;50.890;4.726;2023-03-13T03:14:41;7.13;;;5.90;;
8803;SDS011;4438;50.890;4.726;2023-03-13T03:17:07;6.20;;;5.60;;
8803;SDS011;4438;50.890;4.726;2023-03-13T03:19:33;5.90;;;5.40;;
8803;SDS011;4438;50.890;4.726;2023-03-13T03:21:59;7.67;;;5.73;;
8803;SDS011;4438;50.890;4.726;2023-03-13T03:24:26;6.53;;;5.33;;
8803;SDS011;4438;50.890;4.726;2023-03-13T03:26:52;7.77;;;5.27;;
8803;SDS011;4438;50.890;4.726;2023-03-13T03:29:18;6.23;;;5.63;;
8803;SDS011;4438;50.890;4.726;2023-03-13T03:31:44;7.37;;;5.13;;
8803;SDS011;4438;50.890;4.726;2023-03-13T03:34:10;5.77;;;4.93;;
8803;SDS011;4438;50.890;4.726;2023-03-13T03:36:36;7.40;;;5.20;;
8803;SDS011;4438;50.890;4.726;2023-03-13T03:39:02;5.70;;;4.80;;
8803;SDS011;4438;50.890;4.726;2023-03-13T03:41:29;7.40;;;5.23;;
8803;SDS011;4438;50.890;4.726;2023-03-13T03:43:56;5.50;;;4.30;;
8803;SDS011;4438;50.890;4.726;2023-03-13T03:46:22;5.13;;;4.10;;
8803;SDS011;4438;50.890;4.726;2023-03-13T03:48:48;5.00;;;4.30;;
8803;SDS011;4438;50.890;4.726;2023-03-13T03:51:15;5.97;;;4.17;;
8803;SDS011;4438;50.890;4.726;2023-03-13T03:53:41;4.87;;;3.90;;
8803;SDS011;4438;50.890;4.726;2023-03-13T03:56:07;5.47;;;4.10;;
8803;SDS011;4438;50.890;4.726;2023-03-13T03:58:33;5.40;;;3.90;;
8803;SDS011;4438;50.890;4.726;2023-03-13T04:00:59;6.13;;;3.90;;
8803;SDS011;4438;50.890;4.726;2023-03-13T04:03:26;4.40;;;4.00;;
8803;SDS011;4438;50.890;4.726;2023-03-13T04:05:52;4.67;;;3.60;;
8803;SDS011;4438;50.890;4.726;2023-03-13T04:08:18;4.83;;;3.57;;
8803;SDS011;4438;50.890;4.726;2023-03-13T04:10:44;5.10;;;3.47;;
8803;SDS011;4438;50.890;4.726;2023-03-13T04:13:10;5.00;;;3.50;;
8803;SDS011;4438;50.890;4.726;2023-03-13T04:15:37;5.67;;;3.70;;
8803;SDS011;4438;50.890;4.726;2023-03-13T04:18:03;5.73;;;3.50;;
8803;SDS011;4438;50.890;4.726;2023-03-13T04:20:29;5.80;;;3.07;;
8803;SDS011;4438;50.890;4.726;2023-03-13T04:22:55;3.83;;;3.20;;
8803;SDS011;4438;50.890;4.726;2023-03-13T04:25:22;4.67;;;3.40;;
8803;SDS011;4438;50.890;4.726;2023-03-13T04:27:48;3.60;;;3.27;;
8803;SDS011;4438;50.890;4.726;2023-03-13T04:30:14;4.47;;;3.17;;
8803;SDS011;4438;50.890;4.726;2023-03-13T04:32:40;4.33;;;3.10;;
8803;SDS011;4438;50.890;4.726;2023-03-13T04:35:06;5.33;;;3.47;;
8803;SDS011;4438;50.890;4.726;2023-03-13T04:37:32;3.97;;;3.30;;
8803;SDS011;4438;50.890;4.726;2023-03-13T04:39:58;5.07;;;3.30;;
8803;SDS011;4438;50.890;4.726;2023-03-13T04:42:25;3.93;;;3.40;;
8803;SDS011;4438;50.890;4.726;2023-03-13T04:44:52;4.70;;;3.10;;
8803;SDS011;4438;50.890;4.726;2023-03-13T04:47:18;6.87;;;3.17;;
8803;SDS011;4438;50.890;4.726;2023-03-13T04:49:44;4.27;;;2.87;;
8803;SDS011;4438;50.890;4.726;2023-03-13T04:52:10;5.07;;;3.03;;
8803;SDS011;4438;50.890;4.726;2023-03-13T04:54:37;7.90;;;3.40;;
8803;SDS011;4438;50.890;4.726;2023-03-13T04:57:03;5.73;;;2.97;;
8803;SDS011;4438;50.890;4.726;2023-03-13T04:59:29;4.10;;;3.20;;
8803;SDS011;4438;50.890;4.726;2023-03-13T05:01:55;5.37;;;3.13;;
8803;SDS011;4438;50.890;4.726;2023-03-13T05:04:21;4.20;;;3.03;;
8803;SDS011;4438;50.890;4.726;2023-03-13T05:06:47;4.87;;;3.17;;
8803;SDS011;4438;50.890;4.726;2023-03-13T05:09:13;6.23;;;3.27;;
8803;SDS011;4438;50.890;4.726;2023-03-13T05:11:39;5.27;;;3.27;;
8803;SDS011;4438;50.890;4.726;2023-03-13T05:14:06;4.03;;;2.90;;
8803;SDS011;4438;50.890;4.726;2023-03-13T05:16:34;5.57;;;3.27;;
8803;SDS011;4438;50.890;4.726;2023-03-13T05:19:01;6.37;;;3.27;;
8803;SDS011;4438;50.890;4.726;2023-03-13T05:21:27;3.27;;;2.70;;
8803;SDS011;4438;50.890;4.726;2023-03-13T05:23:53;6.83;;;3.60;;
8803;SDS011;4438;50.890;4.726;2023-03-13T05:26:19;5.60;;;3.23;;
8803;SDS011;4438;50.890;4.726;2023-03-13T05:28:45;5.30;;;2.97;;
8803;SDS011;4438;50.890;4.726;2023-03-13T05:31:11;5.07;;;3.30;;
8803;SDS011;4438;50.890;4.726;2023-03-13T05:33:37;6.20;;;3.47;;
8803;SDS011;4438;50.890;4.726;2023-03-13T05:36:03;6.10;;;3.13;;
8803;SDS011;4438;50.890;4.726;2023-03-13T05:38:29;6.63;;;3.13;;
8803;SDS011;4438;50.890;4.726;2023-03-13T05:40:55;7.00;;;3.97;;
8803;SDS011;4438;50.890;4.726;2023-03-13T05:43:21;5.97;;;3.23;;
8803;SDS011;4438;50.890;4.726;2023-03-13T05:45:48;6.00;;;3.30;;
8803;SDS011;4438;50.890;4.726;2023-03-13T05:48:14;3.60;;;2.83;;
8803;SDS011;4438;50.890;4.726;2023-03-13T05:50:40;6.03;;;3.20;;
8803;SDS011;4438;50.890;4.726;2023-03-13T05:53:06;5.60;;;3.53;;
8803;SDS011;4438;50.890;4.726;2023-03-13T05:55:32;6.23;;;3.50;;
8803;SDS011;4438;50.890;4.726;2023-03-13T05:57:58;7.30;;;3.70;;
8803;SDS011;4438;50.890;4.726;2023-03-13T06:00:24;7.10;;;3.80;;
8803;SDS011;4438;50.890;4.726;2023-03-13T06:02:50;5.80;;;3.57;;
8803;SDS011;4438;50.890;4.726;2023-03-13T06:05:16;5.27;;;3.13;;
8803;SDS011;4438;50.890;4.726;2023-03-13T06:07:42;5.80;;;3.00;;
8803;SDS011;4438;50.890;4.726;2023-03-13T06:10:09;6.50;;;2.90;;
8803;SDS011;4438;50.890;4.726;2023-03-13T06:12:35;6.40;;;3.40;;
8803;SDS011;4438;50.890;4.726;2023-03-13T06:15:01;4.90;;;3.23;;
8803;SDS011;4438;50.890;4.726;2023-03-13T06:17:27;5.97;;;3.60;;
8803;SDS011;4438;50.890;4.726;2023-03-13T06:19:53;8.90;;;3.57;;
8803;SDS011;4438;50.890;4.726;2023-03-13T06:22:19;5.43;;;3.40;;
8803;SDS011;4438;50.890;4.726;2023-03-13T06:24:45;8.33;;;3.60;;
8803;SDS011;4438;50.890;4.726;2023-03-13T06:27:13;6.23;;;3.60;;
8803;SDS011;4438;50.890;4.726;2023-03-13T06:29:39;5.60;;;3.10;;
8803;SDS011;4438;50.890;4.726;2023-03-13T06:32:06;5.90;;;2.97;;
8803;SDS011;4438;50.890;4.726;2023-03-13T06:34:32;6.03;;;3.17;;
8803;SDS011;4438;50.890;4.726;2023-03-13T06:36:58;6.30;;;3.70;;
8803;SDS011;4438;50.890;4.726;2023-03-13T06:39:24;5.30;;;3.30;;
8803;SDS011;4438;50.890;4.726;2023-03-13T06:41:50;7.20;;;3.30;;
8803;SDS011;4438;50.890;4.726;2023-03-13T06:44:16;5.10;;;2.80;;
8803;SDS011;4438;50.890;4.726;2023-03-13T06:46:42;5.27;;;3.40;;
8803;SDS011;4438;50.890;4.726;2023-03-13T06:49:09;4.93;;;3.47;;
8803;SDS011;4438;50.890;4.726;2023-03-13T06:51:35;5.87;;;3.57;;
8803;SDS011;4438;50.890;4.726;2023-03-13T06:54:01;5.23;;;3.50;;
8803;SDS011;4438;50.890;4.726;2023-03-13T06:56:27;6.40;;;3.70;;
8803;SDS011;4438;50.890;4.726;2023-03-13T06:58:53;7.37;;;3.63;;
8803;SDS011;4438;50.890;4.726;2023-03-13T07:01:20;5.70;;;3.23;;
8803;SDS011;4438;50.890;4.726;2023-03-13T07:03:46;7.90;;;3.53;;
8803;SDS011;4438;50.890;4.726;2023-03-13T07:06:13;7.93;;;3.70;;
8803;SDS011;4438;50.890;4.726;2023-03-13T07:08:39;6.03;;;3.63;;
8803;SDS011;4438;50.890;4.726;2023-03-13T07:11:07;10.27;;;3.53;;
8803;SDS011;4438;50.890;4.726;2023-03-13T07:13:33;6.63;;;3.60;;
8803;SDS011;4438;50.890;4.726;2023-03-13T07:15:59;6.33;;;3.63;;
8803;SDS011;4438;50.890;4.726;2023-03-13T07:18:28;6.93;;;3.40;;
8803;SDS011;4438;50.890;4.726;2023-03-13T07:20:55;5.67;;;3.50;;
8803;SDS011;4438;50.890;4.726;2023-03-13T07:23:21;4.83;;;3.50;;
8803;SDS011;4438;50.890;4.726;2023-03-13T07:25:57;8.57;;;3.33;;
8803;SDS011;4438;50.890;4.726;2023-03-13T07:28:24;9.67;;;3.57;;
8803;SDS011;4438;50.890;4.726;2023-03-13T07:30:50;5.27;;;3.37;;
8803;SDS011;4438;50.890;4.726;2023-03-13T07:33:16;9.00;;;3.93;;
8803;SDS011;4438;50.890;4.726;2023-03-13T07:35:46;7.03;;;3.57;;
8803;SDS011;4438;50.890;4.726;2023-03-13T07:38:13;5.43;;;3.80;;
8803;SDS011;4438;50.890;4.726;2023-03-13T07:40:39;6.57;;;3.40;;
8803;SDS011;4438;50.890;4.726;2023-03-13T07:43:05;6.23;;;3.40;;
8803;SDS011;4438;50.890;4.726;2023-03-13T07:45:31;6.00;;;3.20;;
8803;SDS011;4438;50.890;4.726;2023-03-13T07:47:58;6.80;;;3.20;;
8803;SDS011;4438;50.890;4.726;2023-03-13T07:50:24;6.17;;;3.47;;
8803;SDS011;4438;50.890;4.726;2023-03-13T07:52:51;5.53;;;3.30;;
8803;SDS011;4438;50.890;4.726;2023-03-13T07:55:17;8.03;;;3.63;;
8803;SDS011;4438;50.890;4.726;2023-03-13T07:57:43;6.60;;;3.50;;
8803;SDS011;4438;50.890;4.726;2023-03-13T08:00:09;4.97;;;3.30;;
8803;SDS011;4438;50.890;4.726;2023-03-13T08:02:41;6.60;;;3.83;;
8803;SDS011;4438;50.890;4.726;2023-03-13T08:05:07;5.30;;;3.23;;
8803;SDS011;4438;50.890;4.726;2023-03-13T08:07:33;8.33;;;4.07;;
8803;SDS011;4438;50.890;4.726;2023-03-13T08:09:59;5.53;;;3.50;;
8803;SDS011;4438;50.890;4.726;2023-03-13T08:12:26;5.27;;;3.20;;
8803;SDS011;4438;50.890;4.726;2023-03-13T08:14:52;5.73;;;3.57;;
8803;SDS011;4438;50.890;4.726;2023-03-13T08:17:18;4.33;;;3.60;;
8803;SDS011;4438;50.890;4.726;2023-03-13T08:19:44;6.23;;;3.47;;
8803;SDS011;4438;50.890;4.726;2023-03-13T08:22:10;7.50;;;3.50;;
8803;SDS011;4438;50.890;4.726;2023-03-13T08:24:36;8.17;;;3.50;;
8803;SDS011;4438;50.890;4.726;2023-03-13T08:27:02;5.20;;;3.30;;
8803;SDS011;4438;50.890;4.726;2023-03-13T08:29:28;7.03;;;3.83;;
8803;SDS011;4438;50.890;4.726;2023-03-13T08:31:54;6.97;;;3.50;;
8803;SDS011;4438;50.890;4.726;2023-03-13T08:34:20;4.03;;;3.10;;
8803;SDS011;4438;50.890;4.726;2023-03-13T08:36:46;4.30;;;2.83;;
8803;SDS011;4438;50.890;4.726;2023-03-13T08:39:14;5.10;;;3.33;;
8803;SDS011;4438;50.890;4.726;2023-03-13T08:41:40;6.70;;;3.40;;
8803;SDS011;4438;50.890;4.726;2023-03-13T08:44:07;6.23;;;3.27;;
8803;SDS011;4438;50.890;4.726;2023-03-13T08:46:35;6.57;;;3.40;;
8803;SDS011;4438;50.890;4.726;2023-03-13T08:49:02;4.43;;;2.90;;
8803;SDS011;4438;50.890;4.726;2023-03-13T08:51:28;4.83;;;3.20;;
8803;SDS011;4438;50.890;4.726;2023-03-13T08:53:55;4.30;;;3.03;;
8803;SDS011;4438;50.890;4.726;2023-03-13T08:56:22;4.67;;;3.10;;
8803;SDS011;4438;50.890;4.726;2023-03-13T08:58:52;4.07;;;3.30;;
8803;SDS011;4438;50.890;4.726;2023-03-13T09:01:20;4.43;;;3.00;;
8803;SDS011;4438;50.890;4.726;2023-03-13T09:03:46;5.30;;;3.10;;
8803;SDS011;4438;50.890;4.726;2023-03-13T09:06:12;4.83;;;2.90;;
8803;SDS011;4438;50.890;4.726;2023-03-13T09:08:38;3.80;;;2.67;;
8803;SDS011;4438;50.890;4.726;2023-03-13T09:11:06;3.63;;;3.10;;
8803;SDS011;4438;50.890;4.726;2023-03-13T09:13:33;5.73;;;2.90;;
8803;SDS011;4438;50.890;4.726;2023-03-13T09:16:01;4.30;;;2.63;;
8803;SDS011;4438;50.890;4.726;2023-03-13T09:18:27;4.07;;;2.80;;
8803;SDS011;4438;50.890;4.726;2023-03-13T09:20:53;3.53;;;2.60;;
8803;SDS011;4438;50.890;4.726;2023-03-13T09:23:20;3.83;;;2.53;;
8803;SDS011;4438;50.890;4.726;2023-03-13T09:25:53;3.47;;;2.27;;
8803;SDS011;4438;50.890;4.726;2023-03-13T09:28:20;5.00;;;2.80;;
8803;SDS011;4438;50.890;4.726;2023-03-13T09:30:46;3.30;;;2.40;;
8803;SDS011;4438;50.890;4.726;2023-03-13T09:33:14;4.23;;;2.47;;
8803;SDS011;4438;50.890;4.726;2023-03-13T09:35:40;4.13;;;2.50;;
8803;SDS011;4438;50.890;4.726;2023-03-13T09:38:06;3.63;;;2.30;;
8803;SDS011;4438;50.890;4.726;2023-03-13T09:40:48;4.73;;;2.90;;
8803;SDS011;4438;50.890;4.726;2023-03-13T09:43:28;5.63;;;2.90;;
8803;SDS011;4438;50.890;4.726;2023-03-13T09:45:57;4.67;;;2.90;;
8803;SDS011;4438;50.890;4.726;2023-03-13T09:50:58;3.30;;;2.73;;
8803;SDS011;4438;50.890;4.726;2023-03-13T09:53:30;4.30;;;2.90;;
8803;SDS011;4438;50.890;4.726;2023-03-13T09:55:59;5.13;;;3.00;;
8803;SDS011;4438;50.890;4.726;2023-03-13T09:58:27;5.20;;;2.87;;
8803;SDS011;4438;50.890;4.726;2023-03-13T10:00:53;4.63;;;2.70;;
8803;SDS011;4438;50.890;4.726;2023-03-13T10:03:22;4.10;;;2.80;;
8803;SDS011;4438;50.890;4.726;2023-03-13T10:05:58;3.47;;;2.70;;
8803;SDS011;4438;50.890;4.726;2023-03-13T10:08:25;4.67;;;3.07;;
8803;SDS011;4438;50.890;4.726;2023-03-13T10:10:57;3.03;;;2.57;;
8803;SDS011;4438;50.890;4.726;2023-03-13T10:16:53;4.53;;;2.67;;
8803;SDS011;4438;50.890;4.726;2023-03-13T10:19:00;3.43;;;2.43;;
8803;SDS011;4438;50.890;4.726;2023-03-13T10:21:31;3.87;;;2.60;;
8803;SDS011;4438;50.890;4.726;2023-03-13T10:26:28;3.00;;;2.20;;
8803;SDS011;4438;50.890;4.726;2023-03-13T10:28:55;3.23;;;2.20;;
8803;SDS011;4438;50.890;4.726;2023-03-13T10:31:31;3.00;;;2.33;;
8803;SDS011;4438;50.890;4.726;2023-03-13T10:34:08;3.07;;;2.30;;
8803;SDS011;4438;50.890;4.726;2023-03-13T10:36:44;2.83;;;2.20;;
8803;SDS011;4438;50.890;4.726;2023-03-13T10:39:17;3.30;;;2.20;;
8803;SDS011;4438;50.890;4.726;2023-03-13T10:41:43;3.50;;;2.50;;
8803;SDS011;4438;50.890;4.726;2023-03-13T10:44:31;2.97;;;2.20;;
8803;SDS011;4438;50.890;4.726;2023-03-13T10:46:58;3.47;;;2.27;;
8803;SDS011;4438;50.890;4.726;2023-03-13T10:49:25;3.60;;;2.30;;
8803;SDS011;4438;50.890;4.726;2023-03-13T10:51:52;4.87;;;2.23;;
8803;SDS011;4438;50.890;4.726;2023-03-13T10:54:23;3.63;;;2.20;;
8803;SDS011;4438;50.890;4.726;2023-03-13T10:56:50;3.90;;;2.10;;
8803;SDS011;4438;50.890;4.726;2023-03-13T10:59:18;2.80;;;2.20;;
8803;SDS011;4438;50.890;4.726;2023-03-13T11:01:45;2.30;;;2.10;;
8803;SDS011;4438;50.890;4.726;2023-03-13T11:04:45;2.60;;;2.40;;
8803;SDS011;4438;50.890;4.726;2023-03-13T11:07:05;2.30;;;2.10;;
8803;SDS011;4438;50.890;4.726;2023-03-13T11:09:36;3.30;;;1.90;;
8803;SDS011;4438;50.890;4.726;2023-03-13T11:12:04;3.40;;;2.27;;
8803;SDS011;4438;50.890;4.726;2023-03-13T11:14:31;2.00;;;1.80;;
8803;SDS011;4438;50.890;4.726;2023-03-13T11:17:14;1.77;;;1.60;;
8803;SDS011;4438;50.890;4.726;2023-03-13T11:27:38;2.80;;;1.80;;
8803;SDS011;4438;50.890;4.726;2023-03-13T11:35:06;1.90;;;1.70;;
8803;SDS011;4438;50.890;4.726;2023-03-13T11:37:39;3.13;;;1.80;;
8803;SDS011;4438;50.890;4.726;2023-03-13T11:40:14;2.03;;;1.53;;
8803;SDS011;4438;50.890;4.726;2023-03-13T11:43:28;2.47;;;1.80;;
8803;SDS011;4438;50.890;4.726;2023-03-13T11:55:48;2.07;;;1.70;;
8803;SDS011;4438;50.890;4.726;2023-03-13T11:58:28;3.00;;;2.00;;
8803;SDS011;4438;50.890;4.726;2023-03-13T12:01:05;2.20;;;1.67;;
8803;SDS011;4438;50.890;4.726;2023-03-13T12:03:37;1.80;;;1.70;;
8803;SDS011;4438;50.890;4.726;2023-03-13T12:06:04;2.50;;;1.93;;
8803;SDS011;4438;50.890;4.726;2023-03-13T12:08:35;2.87;;;1.63;;
8803;SDS011;4438;50.890;4.726;2023-03-13T12:16:29;2.63;;;1.60;;
8803;SDS011;4438;50.890;4.726;2023-03-13T12:18:59;2.23;;;1.40;;
8803;SDS011;4438;50.890;4.726;2023-03-13T12:23:54;2.53;;;1.57;;
8803;SDS011;4438;50.890;4.726;2023-03-13T12:37:11;1.50;;;1.30;;
8803;SDS011;4438;50.890;4.726;2023-03-13T12:45:00;1.70;;;1.37;;
8803;SDS011;4438;50.890;4.726;2023-03-13T12:55:40;2.37;;;1.50;;
8803;SDS011;4438;50.890;4.726;2023-03-13T12:58:19;2.17;;;1.37;;
8803;SDS011;4438;50.890;4.726;2023-03-13T13:00:46;1.70;;;1.60;;
8803;SDS011;4438;50.890;4.726;2023-03-13T13:05:56;3.33;;;1.93;;
8803;SDS011;4438;50.890;4.726;2023-03-13T13:08:23;3.07;;;1.80;;
8803;SDS011;4438;50.890;4.726;2023-03-13T13:10:50;2.17;;;1.50;;
8803;SDS011;4438;50.890;4.726;2023-03-13T13:13:18;1.87;;;1.40;;
8803;SDS011;4438;50.890;4.726;2023-03-13T13:15:57;2.43;;;1.53;;
8803;SDS011;4438;50.890;4.726;2023-03-13T13:18:25;1.67;;;1.40;;
8803;SDS011;4438;50.890;4.726;2023-03-13T13:23:25;3.90;;;1.80;;
8803;SDS011;4438;50.890;4.726;2023-03-13T13:25:52;2.73;;;1.63;;
8803;SDS011;4438;50.890;4.726;2023-03-13T13:28:23;2.97;;;1.73;;
8803;SDS011;4438;50.890;4.726;2023-03-13T13:30:52;2.50;;;1.60;;
8803;SDS011;4438;50.890;4.726;2023-03-13T13:35:46;2.40;;;1.63;;
8803;SDS011;4438;50.890;4.726;2023-03-13T13:43:44;5.10;;;1.90;;
8803;SDS011;4438;50.890;4.726;2023-03-13T13:48:39;2.73;;;1.70;;
8803;SDS011;4438;50.890;4.726;2023-03-13T13:53:54;3.43;;;1.83;;
8803;SDS011;4438;50.890;4.726;2023-03-13T13:59:01;2.87;;;1.80;;
8803;SDS011;4438;50.890;4.726;2023-03-13T14:01:28;1.80;;;1.63;;
8803;SDS011;4438;50.890;4.726;2023-03-13T14:03:57;3.97;;;1.83;;
8803;SDS011;4438;50.890;4.726;2023-03-13T14:06:27;2.53;;;1.70;;
8803;SDS011;4438;50.890;4.726;2023-03-13T14:08:56;2.37;;;1.70;;
8803;SDS011;4438;50.890;4.726;2023-03-13T14:14:07;4.23;;;1.70;;
8803;SDS011;4438;50.890;4.726;2023-03-13T14:16:33;2.50;;;1.40;;
8803;SDS011;4438;50.890;4.726;2023-03-13T14:19:01;3.10;;;1.73;;
8803;SDS011;4438;50.890;4.726;2023-03-13T14:21:27;3.50;;;1.37;;
8803;SDS011;4438;50.890;4.726;2023-03-13T14:23:53;2.90;;;1.33;;
8803;SDS011;4438;50.890;4.726;2023-03-13T14:28:53;2.73;;;1.53;;
8803;SDS011;4438;50.890;4.726;2023-03-13T14:33:48;2.53;;;1.43;;
8803;SDS011;4438;50.890;4.726;2023-03-13T14:36:15;3.93;;;1.70;;
8803;SDS011;4438;50.890;4.726;2023-03-13T14:38:49;3.37;;;1.70;;
8803;SDS011;4438;50.890;4.726;2023-03-13T14:41:23;3.57;;;1.80;;
8803;SDS011;4438;50.890;4.726;2023-03-13T14:43:49;3.40;;;1.67;;
8803;SDS011;4438;50.890;4.726;2023-03-13T14:46:21;2.70;;;1.77;;
8803;SDS011;4438;50.890;4.726;2023-03-13T14:48:55;4.57;;;2.03;;
8803;SDS011;4438;50.890;4.726;2023-03-13T14:51:22;4.40;;;2.10;;
8803;SDS011;4438;50.890;4.726;2023-03-13T14:53:57;3.23;;;2.20;;
8803;SDS011;4438;50.890;4.726;2023-03-13T14:59:15;3.10;;;1.73;;
8803;SDS011;4438;50.890;4.726;2023-03-13T15:01:42;5.40;;;2.07;;
8803;SDS011;4438;50.890;4.726;2023-03-13T15:04:08;5.80;;;1.90;;
8803;SDS011;4438;50.890;4.726;2023-03-13T15:06:34;4.60;;;1.97;;
8803;SDS011;4438;50.890;4.726;2023-03-13T15:09:20;2.33;;;1.70;;
8803;SDS011;4438;50.890;4.726;2023-03-13T15:11:52;4.13;;;2.10;;
8803;SDS011;4438;50.890;4.726;2023-03-13T15:14:32;2.47;;;2.00;;
8803;SDS011;4438;50.890;4.726;2023-03-13T15:16:59;3.40;;;2.00;;
8803;SDS011;4438;50.890;4.726;2023-03-13T15:19:25;4.57;;;1.83;;
8803;SDS011;4438;50.890;4.726;2023-03-13T15:21:51;3.70;;;2.10;;
8803;SDS011;4438;50.890;4.726;2023-03-13T15:24:17;3.00;;;1.73;;
8803;SDS011;4438;50.890;4.726;2023-03-13T15:26:43;3.77;;;1.93;;
8803;SDS011;4438;50.890;4.726;2023-03-13T15:29:09;4.70;;;2.03;;
8803;SDS011;4438;50.890;4.726;2023-03-13T15:31:36;3.00;;;2.00;;
8803;SDS011;4438;50.890;4.726;2023-03-13T15:34:04;4.67;;;2.23;;
8803;SDS011;4438;50.890;4.726;2023-03-13T15:36:31;3.90;;;2.07;;
8803;SDS011;4438;50.890;4.726;2023-03-13T15:38:57;4.37;;;2.03;;
8803;SDS011;4438;50.890;4.726;2023-03-13T15:41:23;3.67;;;2.10;;
8803;SDS011;4438;50.890;4.726;2023-03-13T15:43:49;5.20;;;2.00;;
8803;SDS011;4438;50.890;4.726;2023-03-13T15:46:21;4.50;;;2.20;;
8803;SDS011;4438;50.890;4.726;2023-03-13T15:48:48;3.83;;;1.87;;
8803;SDS011;4438;50.890;4.726;2023-03-13T15:51:16;5.10;;;2.20;;
8803;SDS011;4438;50.890;4.726;2023-03-13T15:53:42;4.70;;;2.10;;
8803;SDS011;4438;50.890;4.726;2023-03-13T15:56:17;5.80;;;2.23;;
8803;SDS011;4438;50.890;4.726;2023-03-13T15:58:44;5.17;;;2.33;;
8803;SDS011;4438;50.890;4.726;2023-03-13T16:01:11;4.50;;;2.00;;
8803;SDS011;4438;50.890;4.726;2023-03-13T16:03:38;3.83;;;2.20;;
8803;SDS011;4438;50.890;4.726;2023-03-13T16:06:25;4.10;;;1.93;;
8803;SDS011;4438;50.890;4.726;2023-03-13T16:09:01;3.60;;;1.80;;
8803;SDS011;4438;50.890;4.726;2023-03-13T16:11:27;5.73;;;2.17;;
8803;SDS011;4438;50.890;4.726;2023-03-13T16:13:53;4.73;;;2.20;;
8803;SDS011;4438;50.890;4.726;2023-03-13T16:18:49;5.67;;;2.43;;
8803;SDS011;4438;50.890;4.726;2023-03-13T16:21:17;3.50;;;1.90;;
8803;SDS011;4438;50.890;4.726;2023-03-13T16:23:43;6.33;;;2.37;;
8803;SDS011;4438;50.890;4.726;2023-03-13T16:26:14;3.60;;;2.00;;
8803;SDS011;4438;50.890;4.726;2023-03-13T16:28:41;5.60;;;2.30;;
8803;SDS011;4438;50.890;4.726;2023-03-13T16:31:11;5.50;;;2.70;;
8803;SDS011;4438;50.890;4.726;2023-03-13T16:33:40;5.70;;;2.17;;
8803;SDS011;4438;50.890;4.726;2023-03-13T16:36:39;4.63;;;2.13;;
8803;SDS011;4438;50.890;4.726;2023-03-13T16:38:59;6.10;;;2.60;;
8803;SDS011;4438;50.890;4.726;2023-03-13T16:41:26;6.80;;;2.30;;
8803;SDS011;4438;50.890;4.726;2023-03-13T16:43:53;5.17;;;2.70;;
8803;SDS011;4438;50.890;4.726;2023-03-13T16:46:26;3.93;;;2.13;;
8803;SDS011;4438;50.890;4.726;2023-03-13T16:48:54;4.43;;;2.37;;
8803;SDS011;4438;50.890;4.726;2023-03-13T16:51:23;5.50;;;2.57;;
8803;SDS011;4438;50.890;4.726;2023-03-13T16:53:50;5.40;;;2.23;;
8803;SDS011;4438;50.890;4.726;2023-03-13T16:56:29;6.03;;;2.60;;
8803;SDS011;4438;50.890;4.726;2023-03-13T16:58:58;6.17;;;2.50;;
8803;SDS011;4438;50.890;4.726;2023-03-13T17:01:25;4.47;;;2.47;;
8803;SDS011;4438;50.890;4.726;2023-03-13T17:03:53;4.50;;;2.30;;
8803;SDS011;4438;50.890;4.726;2023-03-13T17:06:24;4.90;;;2.37;;